CSN6063 ZGGG-VTSP
Flight info
| Callsign | CSN6063 |
|---|---|
| Flight time | 3h 12m |
| Altitude | 36100 |
| Route | VIBOS1 VIBOS R473 ZUH R200 BIGRO G221 SAMAS A202 NONEM/K0852S1160 A202 ASSAD/K0852F380 A202 VILAO/N0460F380 A202 RAMEI W42 MENEX Y8 SAVSA SAVSA1C |
| Aircraft | B738/M-SDE2E3FGHIRWXY/LB1 |
Departure
| Time | 2026-05-07 05:22 |
|---|---|
| Airport | Guangzhou Baiyun International Airport (ZGGG) |
Arrival
| Time | 2026-05-07 08:35 |
|---|---|
| Airport | Phuket International Airport (VTSP) |
| Time | Latitude | Longitude | Altitude | Speed | Heading |
|---|---|---|---|---|---|
| 2026-05-07 04:44 | 23.40212 | 113.30643 | 57 ft | 0 kts | 194° |
| 2026-05-07 05:08 | 23.40235 | 113.30648 | 51 ft | 4 kts | 183° |
| 2026-05-07 05:08 | 23.40260 | 113.30644 | 50 ft | 4 kts | 146° |
| 2026-05-07 05:08 | 23.40270 | 113.30631 | 54 ft | 0 kts | 104° |
| 2026-05-07 05:11 | 23.40268 | 113.30637 | 52 ft | 2 kts | 104° |
| 2026-05-07 05:11 | 23.40258 | 113.30684 | 49 ft | 7 kts | 104° |
| 2026-05-07 05:11 | 23.40249 | 113.30723 | 57 ft | 9 kts | 104° |
| 2026-05-07 05:12 | 23.40233 | 113.30794 | 57 ft | 10 kts | 104° |
| 2026-05-07 05:12 | 23.40210 | 113.30877 | 55 ft | 13 kts | 109° |
| 2026-05-07 05:12 | 23.40187 | 113.30977 | 53 ft | 13 kts | 103° |
| 2026-05-07 05:12 | 23.40148 | 113.31029 | 54 ft | 2 kts | 163° |
| 2026-05-07 05:13 | 23.40140 | 113.31025 | 55 ft | 0 kts | 206° |
| 2026-05-07 05:14 | 23.40107 | 113.31016 | 55 ft | 10 kts | 193° |
| 2026-05-07 05:15 | 23.40018 | 113.30994 | 56 ft | 16 kts | 193° |
| 2026-05-07 05:15 | 23.39900 | 113.30962 | 55 ft | 19 kts | 194° |
| 2026-05-07 05:15 | 23.39783 | 113.30930 | 56 ft | 16 kts | 192° |
| 2026-05-07 05:15 | 23.39674 | 113.30901 | 53 ft | 16 kts | 194° |
| 2026-05-07 05:16 | 23.39570 | 113.30873 | 51 ft | 15 kts | 194° |
| 2026-05-07 05:16 | 23.39467 | 113.30844 | 56 ft | 16 kts | 194° |
| 2026-05-07 05:16 | 23.39349 | 113.30813 | 52 ft | 18 kts | 193° |
| 2026-05-07 05:16 | 23.39229 | 113.30781 | 54 ft | 17 kts | 194° |
| 2026-05-07 05:17 | 23.39113 | 113.30750 | 52 ft | 17 kts | 193° |
| 2026-05-07 05:17 | 23.39001 | 113.30719 | 53 ft | 16 kts | 195° |
| 2026-05-07 05:17 | 23.38894 | 113.30690 | 53 ft | 16 kts | 194° |
| 2026-05-07 05:17 | 23.38789 | 113.30661 | 50 ft | 16 kts | 194° |
| 2026-05-07 05:18 | 23.38670 | 113.30630 | 53 ft | 19 kts | 193° |
| 2026-05-07 05:18 | 23.38530 | 113.30592 | 56 ft | 21 kts | 194° |
| 2026-05-07 05:18 | 23.38388 | 113.30554 | 54 ft | 21 kts | 194° |
| 2026-05-07 05:18 | 23.38251 | 113.30516 | 54 ft | 20 kts | 194° |
| 2026-05-07 05:19 | 23.38117 | 113.30480 | 56 ft | 19 kts | 194° |
| 2026-05-07 05:19 | 23.37988 | 113.30445 | 54 ft | 19 kts | 194° |
| 2026-05-07 05:19 | 23.37863 | 113.30412 | 53 ft | 18 kts | 194° |
| 2026-05-07 05:19 | 23.37741 | 113.30379 | 53 ft | 18 kts | 194° |
| 2026-05-07 05:20 | 23.37651 | 113.30358 | 57 ft | 9 kts | 177° |
| 2026-05-07 05:20 | 23.37614 | 113.30392 | 57 ft | 7 kts | 108° |
| 2026-05-07 05:20 | 23.37602 | 113.30444 | 55 ft | 7 kts | 104° |
| 2026-05-07 05:20 | 23.37590 | 113.30495 | 57 ft | 7 kts | 104° |
| 2026-05-07 05:21 | 23.37600 | 113.30540 | 52 ft | 5 kts | 44° |
| 2026-05-07 05:21 | 23.37792 | 113.30594 | 53 ft | 55 kts | 14° |
| 2026-05-07 05:21 | 23.38409 | 113.30759 | 54 ft | 125 kts | 13° |
| 2026-05-07 05:22 | 23.39453 | 113.31021 | 69 ft | 179 kts | 11° |
| 2026-05-07 05:22 | 23.40709 | 113.31367 | 730 ft | 184 kts | 14° |
| 2026-05-07 05:22 | 23.41936 | 113.31697 | 1690 ft | 183 kts | 13° |
| 2026-05-07 05:22 | 23.43253 | 113.32049 | 2193 ft | 211 kts | 14° |
| 2026-05-07 05:23 | 23.44773 | 113.32456 | 2465 ft | 239 kts | 13° |
| 2026-05-07 05:23 | 23.46430 | 113.32899 | 3031 ft | 249 kts | 13° |
| 2026-05-07 05:23 | 23.48138 | 113.33356 | 3723 ft | 255 kts | 13° |
| 2026-05-07 05:23 | 23.49868 | 113.33819 | 4660 ft | 256 kts | 13° |
| 2026-05-07 05:24 | 23.51607 | 113.34282 | 5523 ft | 260 kts | 12° |
| 2026-05-07 05:24 | 23.53376 | 113.34756 | 6327 ft | 264 kts | 12° |
| 2026-05-07 05:24 | 23.55133 | 113.35403 | 7003 ft | 275 kts | 29° |
| 2026-05-07 05:24 | 23.56601 | 113.36846 | 7484 ft | 295 kts | 51° |
| 2026-05-07 05:25 | 23.57505 | 113.38862 | 8176 ft | 302 kts | 81° |
| 2026-05-07 05:25 | 23.57696 | 113.41117 | 8962 ft | 304 kts | 87° |
| 2026-05-07 05:25 | 23.57822 | 113.43443 | 9722 ft | 310 kts | 87° |
| 2026-05-07 05:25 | 23.57956 | 113.45811 | 10324 ft | 320 kts | 87° |
| 2026-05-07 05:26 | 23.58117 | 113.48333 | 10503 ft | 345 kts | 86° |
| 2026-05-07 05:26 | 23.58300 | 113.51025 | 10673 ft | 368 kts | 86° |
| 2026-05-07 05:26 | 23.58461 | 113.53867 | 10978 ft | 382 kts | 92° |
| 2026-05-07 05:26 | 23.57935 | 113.56696 | 11549 ft | 384 kts | 114° |
| 2026-05-07 05:27 | 23.56511 | 113.59135 | 12199 ft | 382 kts | 135° |
| 2026-05-07 05:27 | 23.54464 | 113.60950 | 12785 ft | 381 kts | 153° |
| 2026-05-07 05:27 | 23.52080 | 113.62214 | 13373 ft | 383 kts | 159° |
| 2026-05-07 05:27 | 23.49629 | 113.63398 | 13910 ft | 387 kts | 159° |
| 2026-05-07 05:28 | 23.47157 | 113.64591 | 14435 ft | 391 kts | 159° |
| 2026-05-07 05:28 | 23.44663 | 113.65823 | 14955 ft | 394 kts | 158° |
| 2026-05-07 05:28 | 23.42171 | 113.67076 | 15492 ft | 396 kts | 158° |
| 2026-05-07 05:28 | 23.39660 | 113.68346 | 16010 ft | 400 kts | 158° |
| 2026-05-07 05:29 | 23.37068 | 113.69449 | 16475 ft | 399 kts | 171° |
| 2026-05-07 05:29 | 23.34323 | 113.69596 | 16978 ft | 394 kts | 191° |
| 2026-05-07 05:29 | 23.31718 | 113.68751 | 17516 ft | 390 kts | 209° |
| 2026-05-07 05:29 | 23.29513 | 113.67125 | 18005 ft | 389 kts | 224° |
| 2026-05-07 05:30 | 23.27808 | 113.64861 | 18438 ft | 389 kts | 240° |
| 2026-05-07 05:30 | 23.26491 | 113.62287 | 18868 ft | 390 kts | 243° |
| 2026-05-07 05:30 | 23.25155 | 113.59703 | 19289 ft | 393 kts | 241° |
| 2026-05-07 05:30 | 23.23759 | 113.57130 | 19703 ft | 396 kts | 240° |
| 2026-05-07 05:31 | 23.22334 | 113.54557 | 20121 ft | 398 kts | 240° |
| 2026-05-07 05:31 | 23.20893 | 113.51972 | 20520 ft | 401 kts | 240° |
| 2026-05-07 05:31 | 23.19448 | 113.49376 | 20917 ft | 403 kts | 240° |
| 2026-05-07 05:31 | 23.17991 | 113.46755 | 21304 ft | 406 kts | 240° |
| 2026-05-07 05:32 | 23.16530 | 113.44125 | 21688 ft | 408 kts | 240° |
| 2026-05-07 05:32 | 23.15058 | 113.41474 | 22058 ft | 411 kts | 240° |
| 2026-05-07 05:32 | 23.13557 | 113.38823 | 22426 ft | 413 kts | 239° |
| 2026-05-07 05:32 | 23.12031 | 113.36167 | 22792 ft | 415 kts | 239° |
| 2026-05-07 05:33 | 23.10723 | 113.33898 | 23081 ft | 418 kts | 239° |
| 2026-05-07 05:33 | 23.09130 | 113.31130 | 23439 ft | 420 kts | 239° |
| 2026-05-07 05:33 | 23.07601 | 113.28468 | 23734 ft | 422 kts | 239° |
| 2026-05-07 05:33 | 23.06008 | 113.25736 | 23999 ft | 425 kts | 236° |
| 2026-05-07 05:34 | 23.03940 | 113.23425 | 24249 ft | 432 kts | 218° |
| 2026-05-07 05:34 | 23.01279 | 113.21861 | 24532 ft | 440 kts | 202° |
| 2026-05-07 05:34 | 22.98271 | 113.21149 | 24805 ft | 447 kts | 187° |
| 2026-05-07 05:34 | 22.95147 | 113.21343 | 25046 ft | 457 kts | 169° |
| 2026-05-07 05:35 | 22.92082 | 113.22316 | 25314 ft | 460 kts | 165° |
| 2026-05-07 05:35 | 22.89036 | 113.23416 | 25556 ft | 463 kts | 164° |
| 2026-05-07 05:35 | 22.85978 | 113.24544 | 25802 ft | 465 kts | 164° |
| 2026-05-07 05:35 | 22.82897 | 113.25666 | 26047 ft | 467 kts | 164° |
| 2026-05-07 05:36 | 22.79806 | 113.26767 | 26292 ft | 469 kts | 165° |
| 2026-05-07 05:36 | 22.76735 | 113.27842 | 26533 ft | 471 kts | 165° |
| 2026-05-07 05:36 | 22.73611 | 113.28924 | 26777 ft | 472 kts | 165° |
| 2026-05-07 05:36 | 22.70465 | 113.30010 | 27012 ft | 474 kts | 165° |
| 2026-05-07 05:37 | 22.67316 | 113.31098 | 27228 ft | 476 kts | 165° |
| 2026-05-07 05:37 | 22.64157 | 113.32190 | 27448 ft | 478 kts | 165° |
| 2026-05-07 05:37 | 22.60982 | 113.33289 | 27672 ft | 479 kts | 165° |
| 2026-05-07 05:37 | 22.57802 | 113.34390 | 27889 ft | 481 kts | 165° |
| 2026-05-07 05:38 | 22.54615 | 113.35494 | 28124 ft | 482 kts | 165° |
| 2026-05-07 05:38 | 22.51413 | 113.36603 | 28357 ft | 483 kts | 165° |
| 2026-05-07 05:38 | 22.48204 | 113.37715 | 28566 ft | 485 kts | 165° |
| 2026-05-07 05:38 | 22.44987 | 113.38828 | 28779 ft | 486 kts | 165° |
| 2026-05-07 05:39 | 22.41754 | 113.39947 | 28970 ft | 488 kts | 165° |
| 2026-05-07 05:39 | 22.38521 | 113.41065 | 29168 ft | 489 kts | 165° |
| 2026-05-07 05:39 | 22.35272 | 113.42188 | 29364 ft | 491 kts | 165° |
| 2026-05-07 05:39 | 22.32005 | 113.43255 | 29596 ft | 489 kts | 171° |
| 2026-05-07 05:40 | 22.28653 | 113.43508 | 29824 ft | 481 kts | 188° |
| 2026-05-07 05:40 | 22.25421 | 113.42739 | 30115 ft | 472 kts | 204° |
| 2026-05-07 05:40 | 22.22533 | 113.41130 | 30364 ft | 465 kts | 218° |
| 2026-05-07 05:40 | 22.20099 | 113.38861 | 30564 ft | 461 kts | 230° |
| 2026-05-07 05:41 | 22.18208 | 113.36105 | 30722 ft | 458 kts | 243° |
| 2026-05-07 05:41 | 22.16928 | 113.32975 | 30944 ft | 455 kts | 251° |
| 2026-05-07 05:41 | 22.15821 | 113.29784 | 31214 ft | 454 kts | 251° |
| 2026-05-07 05:41 | 22.14691 | 113.26597 | 31455 ft | 454 kts | 250° |
| 2026-05-07 05:42 | 22.13522 | 113.23435 | 31675 ft | 455 kts | 249° |
| 2026-05-07 05:42 | 22.12265 | 113.20297 | 31919 ft | 455 kts | 248° |
| 2026-05-07 05:42 | 22.10965 | 113.17192 | 32187 ft | 454 kts | 248° |
| 2026-05-07 05:42 | 22.09657 | 113.14097 | 32446 ft | 454 kts | 248° |
| 2026-05-07 05:43 | 22.08371 | 113.11035 | 32682 ft | 454 kts | 248° |
| 2026-05-07 05:43 | 22.07078 | 113.07928 | 32924 ft | 454 kts | 248° |
| 2026-05-07 05:43 | 22.05793 | 113.04823 | 33191 ft | 453 kts | 248° |
| 2026-05-07 05:43 | 22.04508 | 113.01715 | 33456 ft | 453 kts | 248° |
| 2026-05-07 05:44 | 22.03236 | 112.98618 | 33690 ft | 452 kts | 249° |
| 2026-05-07 05:44 | 22.02005 | 112.95499 | 33935 ft | 452 kts | 250° |
| 2026-05-07 05:44 | 22.00794 | 112.92366 | 34172 ft | 452 kts | 250° |
| 2026-05-07 05:44 | 21.99591 | 112.89250 | 34422 ft | 450 kts | 250° |
| 2026-05-07 05:45 | 21.98381 | 112.86139 | 34684 ft | 449 kts | 250° |
| 2026-05-07 05:45 | 21.97170 | 112.83042 | 34914 ft | 448 kts | 250° |
| 2026-05-07 05:45 | 21.95953 | 112.79956 | 35135 ft | 448 kts | 250° |
| 2026-05-07 05:45 | 21.94719 | 112.76875 | 35358 ft | 447 kts | 249° |
| 2026-05-07 05:46 | 21.93483 | 112.73805 | 35604 ft | 446 kts | 249° |
| 2026-05-07 05:46 | 21.92249 | 112.70743 | 35836 ft | 445 kts | 249° |
| 2026-05-07 05:46 | 21.91020 | 112.67690 | 36042 ft | 443 kts | 250° |
| 2026-05-07 05:47 | 21.88560 | 112.61566 | 36033 ft | 447 kts | 250° |
| 2026-05-07 05:47 | 21.86094 | 112.55433 | 36038 ft | 445 kts | 249° |
| 2026-05-07 05:48 | 21.83650 | 112.49320 | 36027 ft | 444 kts | 250° |
| 2026-05-07 05:48 | 21.81226 | 112.43218 | 36032 ft | 443 kts | 250° |
| 2026-05-07 05:49 | 21.78805 | 112.37128 | 36030 ft | 442 kts | 250° |
| 2026-05-07 05:49 | 21.76395 | 112.31080 | 36031 ft | 443 kts | 250° |
| 2026-05-07 05:50 | 21.73963 | 112.24987 | 36022 ft | 443 kts | 250° |
| 2026-05-07 05:50 | 21.71525 | 112.18889 | 36039 ft | 444 kts | 249° |
| 2026-05-07 05:51 | 21.69077 | 112.12773 | 36028 ft | 446 kts | 249° |
| 2026-05-07 05:51 | 21.66622 | 112.06644 | 36031 ft | 447 kts | 249° |
| 2026-05-07 05:52 | 21.64159 | 112.00506 | 36034 ft | 448 kts | 249° |
| 2026-05-07 05:52 | 21.61687 | 111.94352 | 36032 ft | 449 kts | 249° |
| 2026-05-07 05:53 | 21.59209 | 111.88187 | 36030 ft | 450 kts | 249° |
| 2026-05-07 05:53 | 21.56467 | 111.82137 | 36025 ft | 453 kts | 240° |
| 2026-05-07 05:54 | 21.52524 | 111.76867 | 36030 ft | 456 kts | 232° |
| 2026-05-07 05:54 | 21.48353 | 111.71731 | 36025 ft | 456 kts | 232° |
| 2026-05-07 05:55 | 21.44217 | 111.66593 | 36026 ft | 455 kts | 232° |
| 2026-05-07 05:55 | 21.40098 | 111.61427 | 36028 ft | 454 kts | 232° |
| 2026-05-07 05:56 | 21.35999 | 111.56273 | 36025 ft | 454 kts | 232° |
| 2026-05-07 05:56 | 21.31903 | 111.51127 | 36026 ft | 453 kts | 232° |
| 2026-05-07 05:57 | 21.27808 | 111.45989 | 36024 ft | 453 kts | 232° |
| 2026-05-07 05:57 | 21.23715 | 111.40860 | 36022 ft | 452 kts | 232° |
| 2026-05-07 05:58 | 21.19618 | 111.35731 | 36020 ft | 452 kts | 232° |
| 2026-05-07 05:58 | 21.15532 | 111.30620 | 36020 ft | 452 kts | 232° |
| 2026-05-07 05:59 | 21.11472 | 111.25545 | 36017 ft | 452 kts | 232° |
| 2026-05-07 05:59 | 21.07382 | 111.20438 | 36016 ft | 452 kts | 232° |
| 2026-05-07 06:00 | 21.03290 | 111.15333 | 36016 ft | 452 kts | 232° |
| 2026-05-07 06:00 | 20.99860 | 111.11058 | 36016 ft | 452 kts | 232° |
| 2026-05-07 06:01 | 20.95099 | 111.05128 | 36011 ft | 452 kts | 232° |
| 2026-05-07 06:01 | 20.91009 | 111.00014 | 36012 ft | 452 kts | 232° |
| 2026-05-07 06:02 | 20.87615 | 110.95763 | 36010 ft | 452 kts | 232° |
| 2026-05-07 06:02 | 20.83526 | 110.90646 | 36011 ft | 452 kts | 232° |
| 2026-05-07 06:03 | 20.79432 | 110.85528 | 36008 ft | 453 kts | 232° |
| 2026-05-07 06:03 | 20.75339 | 110.80419 | 36013 ft | 453 kts | 232° |
| 2026-05-07 06:04 | 20.71239 | 110.75304 | 36019 ft | 453 kts | 231° |
| 2026-05-07 06:04 | 20.67138 | 110.70193 | 36014 ft | 453 kts | 231° |
| 2026-05-07 06:05 | 20.63031 | 110.65080 | 36008 ft | 453 kts | 231° |
| 2026-05-07 06:05 | 20.58930 | 110.59978 | 36003 ft | 453 kts | 231° |
| 2026-05-07 06:06 | 20.54820 | 110.54867 | 36004 ft | 453 kts | 231° |
| 2026-05-07 06:06 | 20.50712 | 110.49765 | 36003 ft | 453 kts | 231° |
| 2026-05-07 06:07 | 20.46720 | 110.44616 | 36000 ft | 453 kts | 233° |
| 2026-05-07 06:07 | 20.42784 | 110.39394 | 35998 ft | 453 kts | 233° |
| 2026-05-07 06:08 | 20.38810 | 110.34154 | 35999 ft | 453 kts | 233° |
| 2026-05-07 06:08 | 20.34832 | 110.28937 | 35996 ft | 453 kts | 233° |
| 2026-05-07 06:09 | 20.30847 | 110.23718 | 35992 ft | 453 kts | 233° |
| 2026-05-07 06:09 | 20.26895 | 110.18492 | 35989 ft | 453 kts | 233° |
| 2026-05-07 06:10 | 20.22963 | 110.13232 | 35990 ft | 453 kts | 233° |
| 2026-05-07 06:10 | 20.19036 | 110.07983 | 35984 ft | 454 kts | 233° |
| 2026-05-07 06:11 | 20.15094 | 110.02727 | 35979 ft | 454 kts | 233° |
| 2026-05-07 06:11 | 20.11150 | 109.97478 | 35979 ft | 454 kts | 233° |
| 2026-05-07 06:12 | 20.07230 | 109.92265 | 35975 ft | 454 kts | 233° |
| 2026-05-07 06:12 | 20.03285 | 109.87025 | 35978 ft | 454 kts | 233° |
| 2026-05-07 06:13 | 19.99336 | 109.81783 | 35973 ft | 454 kts | 233° |
| 2026-05-07 06:13 | 19.95383 | 109.76540 | 35978 ft | 454 kts | 233° |
| 2026-05-07 06:14 | 19.91428 | 109.71300 | 35972 ft | 455 kts | 233° |
| 2026-05-07 06:14 | 19.87471 | 109.66060 | 35972 ft | 455 kts | 233° |
| 2026-05-07 06:15 | 19.83511 | 109.60823 | 35975 ft | 455 kts | 233° |
| 2026-05-07 06:15 | 19.79542 | 109.55578 | 35976 ft | 455 kts | 233° |
| 2026-05-07 06:16 | 19.75580 | 109.50347 | 35976 ft | 455 kts | 233° |
| 2026-05-07 06:16 | 19.71614 | 109.45114 | 35977 ft | 455 kts | 233° |
| 2026-05-07 06:17 | 19.67646 | 109.39884 | 35970 ft | 455 kts | 233° |
| 2026-05-07 06:17 | 19.63678 | 109.34659 | 35977 ft | 454 kts | 233° |
| 2026-05-07 06:18 | 19.59711 | 109.29439 | 35972 ft | 454 kts | 233° |
| 2026-05-07 06:18 | 19.55770 | 109.24255 | 35973 ft | 454 kts | 233° |
| 2026-05-07 06:19 | 19.51794 | 109.19033 | 35971 ft | 454 kts | 233° |
| 2026-05-07 06:19 | 19.47799 | 109.13850 | 35980 ft | 454 kts | 232° |
| 2026-05-07 06:20 | 19.43781 | 109.08673 | 35974 ft | 455 kts | 232° |
| 2026-05-07 06:20 | 19.39763 | 109.03490 | 35981 ft | 454 kts | 232° |
| 2026-05-07 06:21 | 19.35755 | 108.98319 | 35981 ft | 454 kts | 232° |
| 2026-05-07 06:21 | 19.31744 | 108.93146 | 35978 ft | 454 kts | 232° |
| 2026-05-07 06:22 | 19.27733 | 108.87977 | 35973 ft | 454 kts | 232° |
| 2026-05-07 06:22 | 19.21708 | 108.80213 | 36307 ft | 455 kts | 232° |
| 2026-05-07 06:23 | 19.19707 | 108.77630 | 36601 ft | 453 kts | 232° |
| 2026-05-07 06:23 | 19.17715 | 108.75058 | 36909 ft | 450 kts | 232° |
| 2026-05-07 06:23 | 19.15756 | 108.72530 | 37150 ft | 449 kts | 232° |
| 2026-05-07 06:23 | 19.13778 | 108.69979 | 37336 ft | 449 kts | 232° |
| 2026-05-07 06:24 | 19.11795 | 108.67422 | 37527 ft | 449 kts | 232° |
| 2026-05-07 06:24 | 19.09816 | 108.64871 | 37754 ft | 448 kts | 232° |
| 2026-05-07 06:24 | 19.07837 | 108.62321 | 37881 ft | 449 kts | 232° |
| 2026-05-07 06:24 | 19.05851 | 108.59764 | 37872 ft | 451 kts | 232° |
| 2026-05-07 06:25 | 19.01879 | 108.54654 | 37867 ft | 448 kts | 232° |
| 2026-05-07 06:25 | 18.97930 | 108.49577 | 37875 ft | 445 kts | 232° |
| 2026-05-07 06:26 | 18.94013 | 108.44546 | 37874 ft | 443 kts | 232° |
| 2026-05-07 06:26 | 18.90105 | 108.39528 | 37873 ft | 441 kts | 232° |
| 2026-05-07 06:27 | 18.86205 | 108.34526 | 37873 ft | 441 kts | 232° |
| 2026-05-07 06:27 | 18.82295 | 108.29516 | 37876 ft | 443 kts | 232° |
| 2026-05-07 06:28 | 18.78395 | 108.24521 | 37876 ft | 444 kts | 232° |
| 2026-05-07 06:28 | 18.74449 | 108.19472 | 37877 ft | 446 kts | 232° |
| 2026-05-07 06:29 | 18.70483 | 108.14402 | 37875 ft | 449 kts | 232° |
| 2026-05-07 06:29 | 18.66500 | 108.09314 | 37875 ft | 450 kts | 232° |
| 2026-05-07 06:30 | 18.62530 | 108.04248 | 37870 ft | 452 kts | 232° |
| 2026-05-07 06:30 | 18.58520 | 107.99134 | 37872 ft | 453 kts | 232° |
| 2026-05-07 06:31 | 18.54510 | 107.94023 | 37872 ft | 453 kts | 232° |
| 2026-05-07 06:31 | 18.50493 | 107.88909 | 37869 ft | 453 kts | 232° |
| 2026-05-07 06:32 | 18.46476 | 107.83798 | 37871 ft | 452 kts | 232° |
| 2026-05-07 06:32 | 18.42472 | 107.78707 | 37871 ft | 451 kts | 232° |
| 2026-05-07 06:33 | 18.38469 | 107.73621 | 37869 ft | 450 kts | 232° |
| 2026-05-07 06:33 | 18.34476 | 107.68543 | 37865 ft | 449 kts | 234° |
| 2026-05-07 06:34 | 18.31021 | 107.63105 | 37870 ft | 446 kts | 240° |
| 2026-05-07 06:34 | 18.27753 | 107.57600 | 37868 ft | 446 kts | 240° |
| 2026-05-07 06:35 | 18.24447 | 107.52078 | 37863 ft | 446 kts | 239° |
| 2026-05-07 06:35 | 18.21123 | 107.46578 | 37863 ft | 446 kts | 239° |
| 2026-05-07 06:36 | 18.17789 | 107.41078 | 37863 ft | 446 kts | 239° |
| 2026-05-07 06:36 | 18.14450 | 107.35574 | 37865 ft | 446 kts | 239° |
| 2026-05-07 06:37 | 18.11108 | 107.30066 | 37864 ft | 447 kts | 239° |
| 2026-05-07 06:37 | 18.07759 | 107.24551 | 37861 ft | 448 kts | 239° |
| 2026-05-07 06:38 | 18.04396 | 107.19035 | 37864 ft | 448 kts | 239° |
| 2026-05-07 06:38 | 18.01041 | 107.13550 | 37862 ft | 449 kts | 239° |
| 2026-05-07 06:39 | 17.97674 | 107.08047 | 37858 ft | 449 kts | 239° |
| 2026-05-07 06:39 | 17.94281 | 107.02503 | 37857 ft | 450 kts | 239° |
| 2026-05-07 06:40 | 17.90898 | 106.96978 | 37854 ft | 450 kts | 239° |
| 2026-05-07 06:40 | 17.87508 | 106.91444 | 37857 ft | 450 kts | 239° |
| 2026-05-07 06:41 | 17.84143 | 106.85902 | 37857 ft | 450 kts | 239° |
| 2026-05-07 06:41 | 17.80786 | 106.80364 | 37859 ft | 450 kts | 239° |
| 2026-05-07 06:42 | 17.77422 | 106.74824 | 37859 ft | 450 kts | 239° |
| 2026-05-07 06:42 | 17.74063 | 106.69299 | 37860 ft | 450 kts | 239° |
| 2026-05-07 06:43 | 17.70696 | 106.63766 | 37861 ft | 449 kts | 239° |
| 2026-05-07 06:43 | 17.67332 | 106.58244 | 37864 ft | 449 kts | 239° |
| 2026-05-07 06:44 | 17.63959 | 106.52728 | 37871 ft | 449 kts | 239° |
| 2026-05-07 06:44 | 17.60587 | 106.47221 | 37873 ft | 449 kts | 239° |
| 2026-05-07 06:45 | 17.57232 | 106.41743 | 37873 ft | 449 kts | 239° |
| 2026-05-07 06:45 | 17.53855 | 106.36233 | 37887 ft | 450 kts | 239° |
| 2026-05-07 06:46 | 17.50471 | 106.30715 | 37884 ft | 450 kts | 239° |
| 2026-05-07 06:46 | 17.47083 | 106.25194 | 37894 ft | 451 kts | 239° |
| 2026-05-07 06:47 | 17.43686 | 106.19664 | 37886 ft | 451 kts | 239° |
| 2026-05-07 06:47 | 17.40286 | 106.14131 | 37893 ft | 451 kts | 239° |
| 2026-05-07 06:48 | 17.36882 | 106.08598 | 37895 ft | 452 kts | 239° |
| 2026-05-07 06:48 | 17.33504 | 106.03056 | 37890 ft | 452 kts | 239° |
| 2026-05-07 06:49 | 17.30162 | 105.97530 | 37888 ft | 452 kts | 239° |
| 2026-05-07 06:49 | 17.26797 | 105.91972 | 37885 ft | 452 kts | 239° |
| 2026-05-07 06:50 | 17.23419 | 105.86405 | 37869 ft | 453 kts | 239° |
| 2026-05-07 06:50 | 17.20043 | 105.80847 | 37875 ft | 453 kts | 239° |
| 2026-05-07 06:51 | 17.17208 | 105.76185 | 37868 ft | 453 kts | 239° |
| 2026-05-07 06:51 | 17.13849 | 105.70663 | 37870 ft | 453 kts | 239° |
| 2026-05-07 06:52 | 17.10461 | 105.65098 | 37864 ft | 453 kts | 239° |
| 2026-05-07 06:52 | 17.07071 | 105.59536 | 37862 ft | 453 kts | 239° |
| 2026-05-07 06:53 | 17.03678 | 105.53973 | 37864 ft | 454 kts | 239° |
| 2026-05-07 06:53 | 17.00286 | 105.48416 | 37866 ft | 453 kts | 239° |
| 2026-05-07 06:54 | 16.96909 | 105.42886 | 37866 ft | 453 kts | 239° |
| 2026-05-07 06:54 | 16.93516 | 105.37336 | 37870 ft | 453 kts | 239° |
| 2026-05-07 06:55 | 16.90124 | 105.31791 | 37869 ft | 453 kts | 239° |
| 2026-05-07 06:55 | 16.86736 | 105.26257 | 37873 ft | 453 kts | 239° |
| 2026-05-07 06:56 | 16.83337 | 105.20718 | 37871 ft | 452 kts | 239° |
| 2026-05-07 06:56 | 16.79940 | 105.15198 | 37875 ft | 452 kts | 239° |
| 2026-05-07 06:57 | 16.76546 | 105.09684 | 37876 ft | 451 kts | 239° |
| 2026-05-07 06:57 | 16.73152 | 105.04173 | 37878 ft | 451 kts | 239° |
| 2026-05-07 06:58 | 16.69763 | 104.98673 | 37879 ft | 450 kts | 239° |
| 2026-05-07 06:58 | 16.66376 | 104.93181 | 37882 ft | 450 kts | 239° |
| 2026-05-07 06:59 | 16.62989 | 104.87692 | 37882 ft | 450 kts | 239° |
| 2026-05-07 06:59 | 16.59603 | 104.82207 | 37883 ft | 450 kts | 239° |
| 2026-05-07 07:00 | 16.56221 | 104.76787 | 37886 ft | 450 kts | 236° |
| 2026-05-07 07:00 | 16.52134 | 104.71806 | 37885 ft | 452 kts | 230° |
| 2026-05-07 07:01 | 16.47887 | 104.66962 | 37886 ft | 452 kts | 230° |
| 2026-05-07 07:01 | 16.43669 | 104.62102 | 37882 ft | 453 kts | 230° |
| 2026-05-07 07:02 | 16.39462 | 104.57211 | 37884 ft | 453 kts | 230° |
| 2026-05-07 07:02 | 16.35257 | 104.52315 | 37879 ft | 453 kts | 230° |
| 2026-05-07 07:03 | 16.31049 | 104.47422 | 37875 ft | 454 kts | 230° |
| 2026-05-07 07:03 | 16.26833 | 104.42524 | 37873 ft | 454 kts | 230° |
| 2026-05-07 07:04 | 16.22612 | 104.37681 | 37865 ft | 455 kts | 229° |
| 2026-05-07 07:04 | 16.18347 | 104.32821 | 37863 ft | 455 kts | 229° |
| 2026-05-07 07:05 | 16.14080 | 104.27953 | 37855 ft | 455 kts | 229° |
| 2026-05-07 07:05 | 16.09821 | 104.23090 | 37854 ft | 455 kts | 229° |
| 2026-05-07 07:06 | 16.05556 | 104.18223 | 37847 ft | 455 kts | 229° |
| 2026-05-07 07:06 | 16.01337 | 104.13334 | 37852 ft | 454 kts | 230° |
| 2026-05-07 07:07 | 15.97135 | 104.08419 | 37841 ft | 454 kts | 230° |
| 2026-05-07 07:07 | 15.92933 | 104.03510 | 37840 ft | 454 kts | 230° |
| 2026-05-07 07:08 | 15.88733 | 103.98616 | 37838 ft | 454 kts | 230° |
| 2026-05-07 07:08 | 15.84523 | 103.93718 | 37838 ft | 454 kts | 230° |
| 2026-05-07 07:09 | 15.80342 | 103.88856 | 37840 ft | 454 kts | 230° |
| 2026-05-07 07:09 | 15.76136 | 103.83969 | 37844 ft | 454 kts | 230° |
| 2026-05-07 07:10 | 15.71927 | 103.79081 | 37840 ft | 454 kts | 230° |
| 2026-05-07 07:10 | 15.67710 | 103.74188 | 37847 ft | 454 kts | 230° |
| 2026-05-07 07:11 | 15.63494 | 103.69299 | 37844 ft | 454 kts | 230° |
| 2026-05-07 07:11 | 15.59280 | 103.64415 | 37849 ft | 454 kts | 230° |
| 2026-05-07 07:12 | 15.55058 | 103.59525 | 37849 ft | 455 kts | 230° |
| 2026-05-07 07:12 | 15.50839 | 103.54643 | 37847 ft | 455 kts | 230° |
| 2026-05-07 07:13 | 15.46614 | 103.49757 | 37852 ft | 455 kts | 230° |
| 2026-05-07 07:13 | 15.42392 | 103.44876 | 37841 ft | 455 kts | 230° |
| 2026-05-07 07:14 | 15.38195 | 103.40028 | 37837 ft | 454 kts | 230° |
| 2026-05-07 07:14 | 15.33972 | 103.35154 | 37840 ft | 455 kts | 230° |
| 2026-05-07 07:15 | 15.29750 | 103.30283 | 37834 ft | 454 kts | 230° |
| 2026-05-07 07:15 | 15.25523 | 103.25410 | 37827 ft | 454 kts | 229° |
| 2026-05-07 07:16 | 15.21300 | 103.20544 | 37833 ft | 454 kts | 229° |
| 2026-05-07 07:16 | 15.17074 | 103.15678 | 37829 ft | 454 kts | 229° |
| 2026-05-07 07:17 | 15.12854 | 103.10822 | 37834 ft | 454 kts | 229° |
| 2026-05-07 07:17 | 15.08633 | 103.05966 | 37840 ft | 453 kts | 229° |
| 2026-05-07 07:18 | 15.04286 | 103.01243 | 37834 ft | 454 kts | 222° |
| 2026-05-07 07:18 | 14.99012 | 102.97654 | 37857 ft | 455 kts | 211° |
| 2026-05-07 07:19 | 14.93513 | 102.94383 | 37845 ft | 456 kts | 212° |
| 2026-05-07 07:19 | 14.88086 | 102.91063 | 37840 ft | 456 kts | 212° |
| 2026-05-07 07:20 | 14.82636 | 102.87720 | 37845 ft | 455 kts | 212° |
| 2026-05-07 07:20 | 14.77173 | 102.84404 | 37847 ft | 455 kts | 212° |
| 2026-05-07 07:21 | 14.71709 | 102.81089 | 37841 ft | 455 kts | 212° |
| 2026-05-07 07:21 | 14.66248 | 102.77770 | 37845 ft | 455 kts | 212° |
| 2026-05-07 07:22 | 14.60788 | 102.74468 | 37844 ft | 455 kts | 211° |
| 2026-05-07 07:22 | 14.55305 | 102.71200 | 37825 ft | 455 kts | 211° |
| 2026-05-07 07:23 | 14.49830 | 102.67938 | 37829 ft | 454 kts | 211° |
| 2026-05-07 07:23 | 14.44396 | 102.64696 | 37828 ft | 454 kts | 211° |
| 2026-05-07 07:24 | 14.38929 | 102.61435 | 37835 ft | 454 kts | 211° |
| 2026-05-07 07:24 | 14.33449 | 102.58197 | 37835 ft | 454 kts | 211° |
| 2026-05-07 07:25 | 14.25205 | 102.53391 | 37834 ft | 454 kts | 211° |
| 2026-05-07 07:26 | 14.19706 | 102.50182 | 37835 ft | 454 kts | 211° |
| 2026-05-07 07:26 | 14.14211 | 102.46973 | 37835 ft | 453 kts | 211° |
| 2026-05-07 07:27 | 14.08723 | 102.43768 | 37837 ft | 453 kts | 211° |
| 2026-05-07 07:27 | 14.03242 | 102.40570 | 37829 ft | 453 kts | 211° |
| 2026-05-07 07:28 | 13.97759 | 102.37372 | 37830 ft | 452 kts | 211° |
| 2026-05-07 07:28 | 13.92287 | 102.34182 | 37824 ft | 452 kts | 211° |
| 2026-05-07 07:29 | 13.86846 | 102.31012 | 37818 ft | 451 kts | 211° |
| 2026-05-07 07:29 | 13.81409 | 102.27805 | 37820 ft | 450 kts | 211° |
| 2026-05-07 07:30 | 13.75986 | 102.24593 | 37817 ft | 449 kts | 211° |
| 2026-05-07 07:30 | 13.70560 | 102.21405 | 37807 ft | 449 kts | 211° |
| 2026-05-07 07:31 | 13.65123 | 102.18253 | 37814 ft | 448 kts | 211° |
| 2026-05-07 07:31 | 13.59699 | 102.15112 | 37808 ft | 447 kts | 211° |
| 2026-05-07 07:32 | 13.54285 | 102.11972 | 37814 ft | 447 kts | 211° |
| 2026-05-07 07:32 | 13.48868 | 102.08829 | 37814 ft | 447 kts | 211° |
| 2026-05-07 07:33 | 13.43458 | 102.05693 | 37818 ft | 446 kts | 210° |
| 2026-05-07 07:33 | 13.38045 | 102.02555 | 37821 ft | 447 kts | 210° |
| 2026-05-07 07:34 | 13.32626 | 101.99416 | 37818 ft | 447 kts | 210° |
| 2026-05-07 07:34 | 13.27207 | 101.96278 | 37822 ft | 447 kts | 210° |
| 2026-05-07 07:35 | 13.21779 | 101.93137 | 37824 ft | 448 kts | 210° |
| 2026-05-07 07:35 | 13.16336 | 101.89984 | 37821 ft | 450 kts | 210° |
| 2026-05-07 07:36 | 13.10887 | 101.86826 | 37829 ft | 450 kts | 210° |
| 2026-05-07 07:36 | 13.05427 | 101.83665 | 37827 ft | 451 kts | 210° |
| 2026-05-07 07:37 | 13.00005 | 101.80499 | 37822 ft | 451 kts | 210° |
| 2026-05-07 07:37 | 12.94539 | 101.77310 | 37818 ft | 452 kts | 210° |
| 2026-05-07 07:38 | 12.89047 | 101.74157 | 37823 ft | 452 kts | 210° |
| 2026-05-07 07:38 | 12.83562 | 101.71003 | 37820 ft | 452 kts | 210° |
| 2026-05-07 07:39 | 12.78321 | 101.67474 | 37818 ft | 451 kts | 221° |
| 2026-05-07 07:39 | 12.74218 | 101.62649 | 37830 ft | 449 kts | 234° |
| 2026-05-07 07:40 | 12.71226 | 101.58302 | 37822 ft | 449 kts | 234° |
| 2026-05-07 07:40 | 12.67608 | 101.53085 | 37826 ft | 449 kts | 234° |
| 2026-05-07 07:41 | 12.63951 | 101.47898 | 37824 ft | 449 kts | 234° |
| 2026-05-07 07:41 | 12.60285 | 101.42716 | 37822 ft | 449 kts | 234° |
| 2026-05-07 07:42 | 12.56616 | 101.37531 | 37822 ft | 449 kts | 233° |
| 2026-05-07 07:42 | 12.52948 | 101.32346 | 37820 ft | 450 kts | 233° |
| 2026-05-07 07:43 | 12.49275 | 101.27157 | 37818 ft | 451 kts | 233° |
| 2026-05-07 07:43 | 12.45621 | 101.21996 | 37822 ft | 451 kts | 233° |
| 2026-05-07 07:44 | 12.41929 | 101.16785 | 37821 ft | 452 kts | 233° |
| 2026-05-07 07:44 | 12.38231 | 101.11567 | 37820 ft | 453 kts | 233° |
| 2026-05-07 07:45 | 12.34520 | 101.06336 | 37822 ft | 454 kts | 233° |
| 2026-05-07 07:45 | 12.30801 | 101.01099 | 37824 ft | 455 kts | 233° |
| 2026-05-07 07:46 | 12.27073 | 100.95852 | 37825 ft | 456 kts | 233° |
| 2026-05-07 07:46 | 12.23344 | 100.90603 | 37827 ft | 457 kts | 233° |
| 2026-05-07 07:47 | 12.19608 | 100.85348 | 37823 ft | 457 kts | 233° |
| 2026-05-07 07:47 | 12.15873 | 100.80096 | 37822 ft | 458 kts | 233° |
| 2026-05-07 07:48 | 12.12121 | 100.74823 | 37819 ft | 458 kts | 233° |
| 2026-05-07 07:48 | 12.08400 | 100.69595 | 37825 ft | 458 kts | 233° |
| 2026-05-07 07:49 | 12.04623 | 100.64297 | 37825 ft | 458 kts | 233° |
| 2026-05-07 07:49 | 12.00858 | 100.59111 | 37826 ft | 458 kts | 231° |
| 2026-05-07 07:50 | 11.96463 | 100.54475 | 37831 ft | 456 kts | 221° |
| 2026-05-07 07:50 | 11.91770 | 100.50096 | 37824 ft | 456 kts | 221° |
| 2026-05-07 07:51 | 11.87132 | 100.45680 | 37820 ft | 456 kts | 222° |
| 2026-05-07 07:51 | 11.82511 | 100.41251 | 37821 ft | 455 kts | 222° |
| 2026-05-07 07:52 | 11.77878 | 100.36837 | 37822 ft | 455 kts | 222° |
| 2026-05-07 07:52 | 11.73247 | 100.32426 | 37820 ft | 455 kts | 222° |
| 2026-05-07 07:53 | 11.68646 | 100.28042 | 37823 ft | 455 kts | 222° |
| 2026-05-07 07:53 | 11.64024 | 100.23640 | 37822 ft | 456 kts | 222° |
| 2026-05-07 07:54 | 11.59389 | 100.19228 | 37820 ft | 456 kts | 222° |
| 2026-05-07 07:54 | 11.54743 | 100.14805 | 37825 ft | 456 kts | 222° |
| 2026-05-07 07:55 | 11.50119 | 100.10403 | 37826 ft | 456 kts | 222° |
| 2026-05-07 07:55 | 11.45471 | 100.05981 | 37825 ft | 456 kts | 222° |
| 2026-05-07 07:56 | 11.40837 | 100.01564 | 37822 ft | 456 kts | 222° |
| 2026-05-07 07:56 | 11.36204 | 99.97147 | 37825 ft | 456 kts | 222° |
| 2026-05-07 07:57 | 11.31564 | 99.92727 | 37824 ft | 456 kts | 222° |
| 2026-05-07 07:57 | 11.26929 | 99.88313 | 37822 ft | 456 kts | 222° |
| 2026-05-07 07:58 | 11.22288 | 99.83895 | 37827 ft | 457 kts | 222° |
| 2026-05-07 07:58 | 11.17643 | 99.79476 | 37821 ft | 457 kts | 222° |
| 2026-05-07 07:59 | 11.12459 | 99.75789 | 37826 ft | 455 kts | 205° |
| 2026-05-07 07:59 | 11.06537 | 99.73657 | 37830 ft | 455 kts | 196° |
| 2026-05-07 08:00 | 11.00448 | 99.71825 | 37825 ft | 457 kts | 195° |
| 2026-05-07 08:00 | 10.94350 | 99.69969 | 37822 ft | 458 kts | 196° |
| 2026-05-07 08:01 | 10.88235 | 99.68069 | 37824 ft | 460 kts | 196° |
| 2026-05-07 08:01 | 10.82112 | 99.66152 | 37825 ft | 461 kts | 196° |
| 2026-05-07 08:02 | 10.75966 | 99.64226 | 37824 ft | 463 kts | 197° |
| 2026-05-07 08:02 | 10.69804 | 99.62297 | 37830 ft | 464 kts | 196° |
| 2026-05-07 08:03 | 10.63626 | 99.60365 | 37818 ft | 464 kts | 196° |
| 2026-05-07 08:03 | 10.57456 | 99.58436 | 37825 ft | 464 kts | 196° |
| 2026-05-07 08:04 | 10.51312 | 99.56516 | 37827 ft | 464 kts | 196° |
| 2026-05-07 08:04 | 10.45144 | 99.54589 | 37815 ft | 464 kts | 196° |
| 2026-05-07 08:05 | 10.38979 | 99.52665 | 37817 ft | 463 kts | 196° |
| 2026-05-07 08:05 | 10.32836 | 99.50748 | 37817 ft | 462 kts | 196° |
| 2026-05-07 08:06 | 10.26696 | 99.48833 | 37817 ft | 461 kts | 196° |
| 2026-05-07 08:06 | 10.20573 | 99.46924 | 37816 ft | 460 kts | 196° |
| 2026-05-07 08:07 | 10.14449 | 99.45015 | 37812 ft | 460 kts | 196° |
| 2026-05-07 08:07 | 10.08327 | 99.43108 | 37812 ft | 460 kts | 196° |
| 2026-05-07 08:08 | 10.02207 | 99.41202 | 37723 ft | 462 kts | 196° |
| 2026-05-07 08:08 | 9.99103 | 99.40236 | 37179 ft | 468 kts | 196° |
| 2026-05-07 08:08 | 9.96002 | 99.39270 | 36600 ft | 466 kts | 197° |
| 2026-05-07 08:08 | 9.92901 | 99.38305 | 36007 ft | 465 kts | 197° |
| 2026-05-07 08:09 | 9.89816 | 99.37345 | 35381 ft | 465 kts | 197° |
| 2026-05-07 08:09 | 9.86716 | 99.36380 | 34704 ft | 467 kts | 197° |
| 2026-05-07 08:09 | 9.83603 | 99.35412 | 34004 ft | 469 kts | 197° |
| 2026-05-07 08:09 | 9.80521 | 99.34453 | 33432 ft | 466 kts | 197° |
| 2026-05-07 08:10 | 9.77427 | 99.33491 | 32879 ft | 463 kts | 197° |
| 2026-05-07 08:10 | 9.74364 | 99.32538 | 32371 ft | 459 kts | 197° |
| 2026-05-07 08:10 | 9.71327 | 99.31594 | 31875 ft | 455 kts | 197° |
| 2026-05-07 08:10 | 9.68310 | 99.30656 | 31388 ft | 451 kts | 197° |
| 2026-05-07 08:11 | 9.65338 | 99.29733 | 30911 ft | 448 kts | 196° |
| 2026-05-07 08:11 | 9.62348 | 99.28804 | 30412 ft | 445 kts | 196° |
| 2026-05-07 08:11 | 9.59389 | 99.27885 | 29925 ft | 443 kts | 196° |
| 2026-05-07 08:11 | 9.56455 | 99.26973 | 29373 ft | 440 kts | 196° |
| 2026-05-07 08:12 | 9.53541 | 99.26069 | 28851 ft | 436 kts | 196° |
| 2026-05-07 08:12 | 9.50650 | 99.25171 | 28345 ft | 432 kts | 196° |
| 2026-05-07 08:12 | 9.47793 | 99.24285 | 27855 ft | 428 kts | 195° |
| 2026-05-07 08:12 | 9.44954 | 99.23404 | 27370 ft | 425 kts | 195° |
| 2026-05-07 08:13 | 9.42137 | 99.22531 | 26893 ft | 421 kts | 195° |
| 2026-05-07 08:13 | 9.39341 | 99.21664 | 26417 ft | 418 kts | 195° |
| 2026-05-07 08:13 | 9.36569 | 99.20804 | 25943 ft | 416 kts | 195° |
| 2026-05-07 08:13 | 9.33813 | 99.19950 | 25450 ft | 414 kts | 195° |
| 2026-05-07 08:14 | 9.31064 | 99.19098 | 24972 ft | 412 kts | 195° |
| 2026-05-07 08:14 | 9.28332 | 99.18251 | 24492 ft | 410 kts | 195° |
| 2026-05-07 08:14 | 9.25609 | 99.17407 | 24016 ft | 408 kts | 195° |
| 2026-05-07 08:14 | 9.22897 | 99.16567 | 23543 ft | 407 kts | 195° |
| 2026-05-07 08:15 | 9.20187 | 99.15727 | 23016 ft | 406 kts | 195° |
| 2026-05-07 08:15 | 9.17488 | 99.14891 | 22510 ft | 404 kts | 195° |
| 2026-05-07 08:15 | 9.14834 | 99.14032 | 22020 ft | 403 kts | 199° |
| 2026-05-07 08:15 | 9.12295 | 99.12810 | 21549 ft | 401 kts | 208° |
| 2026-05-07 08:16 | 9.10018 | 99.11193 | 21092 ft | 399 kts | 217° |
| 2026-05-07 08:16 | 9.07870 | 99.09427 | 20636 ft | 396 kts | 218° |
| 2026-05-07 08:16 | 9.05761 | 99.07660 | 20182 ft | 393 kts | 218° |
| 2026-05-07 08:16 | 9.03661 | 99.05902 | 19728 ft | 390 kts | 218° |
| 2026-05-07 08:17 | 9.01571 | 99.04165 | 19276 ft | 388 kts | 218° |
| 2026-05-07 08:17 | 8.99485 | 99.02442 | 18819 ft | 386 kts | 218° |
| 2026-05-07 08:17 | 8.97406 | 99.00735 | 18373 ft | 385 kts | 217° |
| 2026-05-07 08:17 | 8.95354 | 98.99053 | 17901 ft | 383 kts | 217° |
| 2026-05-07 08:18 | 8.93286 | 98.97360 | 17422 ft | 381 kts | 217° |
| 2026-05-07 08:18 | 8.91234 | 98.95682 | 16968 ft | 378 kts | 217° |
| 2026-05-07 08:18 | 8.89195 | 98.94013 | 16521 ft | 375 kts | 217° |
| 2026-05-07 08:18 | 8.87176 | 98.92362 | 16092 ft | 372 kts | 217° |
| 2026-05-07 08:19 | 8.85171 | 98.90721 | 15667 ft | 369 kts | 217° |
| 2026-05-07 08:19 | 8.83182 | 98.89095 | 15234 ft | 367 kts | 217° |
| 2026-05-07 08:19 | 8.81205 | 98.87479 | 14809 ft | 364 kts | 217° |
| 2026-05-07 08:19 | 8.79241 | 98.85876 | 14476 ft | 359 kts | 217° |
| 2026-05-07 08:20 | 8.77318 | 98.84315 | 14215 ft | 352 kts | 217° |
| 2026-05-07 08:20 | 8.75416 | 98.82773 | 13874 ft | 348 kts | 217° |
| 2026-05-07 08:20 | 8.73536 | 98.81250 | 13489 ft | 346 kts | 217° |
| 2026-05-07 08:20 | 8.71662 | 98.79733 | 13056 ft | 344 kts | 217° |
| 2026-05-07 08:21 | 8.69799 | 98.78223 | 12666 ft | 342 kts | 217° |
| 2026-05-07 08:21 | 8.67949 | 98.76724 | 12289 ft | 339 kts | 217° |
| 2026-05-07 08:21 | 8.66120 | 98.75241 | 11926 ft | 336 kts | 217° |
| 2026-05-07 08:21 | 8.64299 | 98.73765 | 11559 ft | 334 kts | 217° |
| 2026-05-07 08:22 | 8.62496 | 98.72303 | 11301 ft | 329 kts | 217° |
| 2026-05-07 08:22 | 8.60730 | 98.70871 | 11024 ft | 324 kts | 217° |
| 2026-05-07 08:22 | 8.58982 | 98.69455 | 10703 ft | 320 kts | 217° |
| 2026-05-07 08:22 | 8.57277 | 98.68073 | 10473 ft | 315 kts | 217° |
| 2026-05-07 08:23 | 8.55598 | 98.66711 | 10355 ft | 306 kts | 217° |
| 2026-05-07 08:23 | 8.53962 | 98.65385 | 10223 ft | 297 kts | 217° |
| 2026-05-07 08:23 | 8.52373 | 98.64098 | 10111 ft | 289 kts | 217° |
| 2026-05-07 08:23 | 8.50826 | 98.62846 | 9989 ft | 281 kts | 217° |
| 2026-05-07 08:24 | 8.49236 | 98.61685 | 9582 ft | 285 kts | 210° |
| 2026-05-07 08:24 | 8.47527 | 98.60646 | 9188 ft | 287 kts | 208° |
| 2026-05-07 08:24 | 8.45807 | 98.59635 | 8889 ft | 285 kts | 208° |
| 2026-05-07 08:24 | 8.44100 | 98.58622 | 8592 ft | 284 kts | 208° |
| 2026-05-07 08:25 | 8.42424 | 98.57613 | 8296 ft | 282 kts | 209° |
| 2026-05-07 08:25 | 8.40745 | 98.56591 | 8002 ft | 281 kts | 209° |
| 2026-05-07 08:25 | 8.39073 | 98.55570 | 7738 ft | 280 kts | 209° |
| 2026-05-07 08:25 | 8.37413 | 98.54556 | 7519 ft | 278 kts | 209° |
| 2026-05-07 08:26 | 8.33850 | 98.53797 | 7199 ft | 260 kts | 173° |
| 2026-05-07 08:26 | 8.32054 | 98.53979 | 6953 ft | 259 kts | 172° |
| 2026-05-07 08:26 | 8.30264 | 98.54168 | 6668 ft | 258 kts | 172° |
| 2026-05-07 08:27 | 8.28474 | 98.54349 | 6387 ft | 258 kts | 172° |
| 2026-05-07 08:27 | 8.26714 | 98.54520 | 6123 ft | 257 kts | 173° |
| 2026-05-07 08:27 | 8.24936 | 98.54689 | 5843 ft | 256 kts | 173° |
| 2026-05-07 08:27 | 8.23164 | 98.54857 | 5563 ft | 255 kts | 173° |
| 2026-05-07 08:28 | 8.21401 | 98.55024 | 5298 ft | 253 kts | 173° |
| 2026-05-07 08:28 | 8.19658 | 98.55188 | 5065 ft | 250 kts | 173° |
| 2026-05-07 08:28 | 8.17951 | 98.55348 | 4970 ft | 242 kts | 173° |
| 2026-05-07 08:28 | 8.16305 | 98.55503 | 4894 ft | 233 kts | 173° |
| 2026-05-07 08:29 | 8.15249 | 98.55602 | 4812 ft | 229 kts | 173° |
| 2026-05-07 08:29 | 8.13679 | 98.55591 | 4636 ft | 226 kts | 195° |
| 2026-05-07 08:29 | 8.12146 | 98.54242 | 4058 ft | 229 kts | 252° |
| 2026-05-07 08:29 | 8.12045 | 98.53217 | 3890 ft | 221 kts | 279° |
| 2026-05-07 08:30 | 8.12438 | 98.51754 | 3649 ft | 211 kts | 285° |
| 2026-05-07 08:30 | 8.12736 | 98.50319 | 3384 ft | 210 kts | 270° |
| 2026-05-07 08:30 | 8.12499 | 98.48883 | 3150 ft | 206 kts | 263° |
| 2026-05-07 08:30 | 8.12417 | 98.47445 | 2896 ft | 204 kts | 269° |
| 2026-05-07 08:31 | 8.12379 | 98.46020 | 2635 ft | 202 kts | 267° |
| 2026-05-07 08:31 | 8.12294 | 98.44613 | 2374 ft | 199 kts | 265° |
| 2026-05-07 08:31 | 8.12198 | 98.43224 | 2091 ft | 197 kts | 265° |
| 2026-05-07 08:31 | 8.12105 | 98.41886 | 1834 ft | 186 kts | 265° |
| 2026-05-07 08:32 | 8.12018 | 98.40623 | 1577 ft | 175 kts | 265° |
| 2026-05-07 08:32 | 8.11936 | 98.39438 | 1368 ft | 161 kts | 265° |
| 2026-05-07 08:32 | 8.11861 | 98.38351 | 1126 ft | 151 kts | 265° |
| 2026-05-07 08:32 | 8.11789 | 98.37304 | 939 ft | 149 kts | 265° |
| 2026-05-07 08:33 | 8.11785 | 98.37250 | 930 ft | 149 kts | 265° |
| 2026-05-07 08:33 | 8.11753 | 98.36786 | 852 ft | 149 kts | 265° |
| 2026-05-07 08:33 | 8.11683 | 98.35729 | 654 ft | 148 kts | 267° |
| 2026-05-07 08:34 | 8.11616 | 98.34728 | 456 ft | 143 kts | 264° |
| 2026-05-07 08:34 | 8.11520 | 98.33727 | 269 ft | 145 kts | 265° |
| 2026-05-07 08:34 | 8.11422 | 98.32715 | 99 ft | 142 kts | 264° |
| 2026-05-07 08:34 | 8.11341 | 98.31827 | 50 ft | 103 kts | 264° |
| 2026-05-07 08:35 | 8.11288 | 98.31321 | 31 ft | 42 kts | 264° |
| 2026-05-07 08:35 | 8.11254 | 98.31181 | 28 ft | 19 kts | 242° |
| 2026-05-07 08:35 | 8.11196 | 98.31090 | 29 ft | 11 kts | 234° |
| 2026-05-07 08:35 | 8.11152 | 98.31027 | 29 ft | 11 kts | 234° |
| 2026-05-07 08:36 | 8.11108 | 98.30966 | 29 ft | 11 kts | 234° |
| 2026-05-07 08:36 | 8.11085 | 98.30899 | 28 ft | 10 kts | 265° |
| 2026-05-07 08:36 | 8.11079 | 98.30831 | 28 ft | 10 kts | 265° |
| 2026-05-07 08:36 | 8.11073 | 98.30764 | 28 ft | 9 kts | 265° |
| 2026-05-07 08:37 | 8.11067 | 98.30699 | 27 ft | 9 kts | 265° |
| 2026-05-07 08:37 | 8.11061 | 98.30635 | 27 ft | 9 kts | 264° |
| 2026-05-07 08:37 | 8.11055 | 98.30574 | 27 ft | 9 kts | 264° |
| 2026-05-07 08:37 | 8.11048 | 98.30514 | 26 ft | 8 kts | 258° |
| 2026-05-07 08:38 | 8.11018 | 98.30484 | 26 ft | 6 kts | 195° |
| 2026-05-07 08:38 | 8.10979 | 98.30475 | 26 ft | 6 kts | 193° |
| 2026-05-07 08:38 | 8.10940 | 98.30465 | 28 ft | 6 kts | 193° |
| 2026-05-07 08:38 | 8.10900 | 98.30455 | 27 ft | 7 kts | 193° |
| 2026-05-07 08:39 | 8.10848 | 98.30442 | 27 ft | 8 kts | 198° |
| 2026-05-07 08:39 | 8.10794 | 98.30427 | 28 ft | 8 kts | 194° |
| 2026-05-07 08:39 | 8.10742 | 98.30412 | 28 ft | 8 kts | 195° |
| 2026-05-07 08:39 | 8.10691 | 98.30398 | 26 ft | 7 kts | 195° |
| 2026-05-07 08:40 | 8.10642 | 98.30385 | 26 ft | 7 kts | 195° |
| 2026-05-07 08:40 | 8.10594 | 98.30373 | 30 ft | 7 kts | 193° |
| 2026-05-07 08:40 | 8.10547 | 98.30361 | 30 ft | 7 kts | 195° |
| 2026-05-07 08:40 | 8.10501 | 98.30348 | 26 ft | 7 kts | 195° |
| 2026-05-07 08:41 | 8.10471 | 98.30356 | 28 ft | 4 kts | 133° |
| 2026-05-07 08:41 | 8.10465 | 98.30383 | 27 ft | 4 kts | 103° |
| 2026-05-07 08:41 | 8.10458 | 98.30410 | 29 ft | 4 kts | 105° |
| 2026-05-07 08:41 | 8.10453 | 98.30428 | 31 ft | 2 kts | 105° |
| 2026-05-07 08:42 | 8.10450 | 98.30439 | 30 ft | 1 kts | 104° |
| 2026-05-07 08:42 | 8.10450 | 98.30440 | 28 ft | 0 kts | 104° |
| 2026-05-07 08:42 | 8.10455 | 98.30420 | 30 ft | 0 kts | 105° |